sensor_id;sensor_type;location;lat;lon;timestamp;P1;durP1;ratioP1;P2;durP2;ratioP2
6529;SDS011;3298;42.688;23.366;2023-02-12T00:01:37;9.00;;;7.20;;
6529;SDS011;3298;42.688;23.366;2023-02-12T00:04:04;9.10;;;6.27;;
6529;SDS011;3298;42.688;23.366;2023-02-12T00:06:30;10.60;;;7.53;;
6529;SDS011;3298;42.688;23.366;2023-02-12T00:08:57;11.40;;;7.23;;
6529;SDS011;3298;42.688;23.366;2023-02-12T00:11:27;8.67;;;6.90;;
6529;SDS011;3298;42.688;23.366;2023-02-12T00:13:54;8.07;;;7.07;;
6529;SDS011;3298;42.688;23.366;2023-02-12T00:16:22;8.07;;;6.93;;
6529;SDS011;3298;42.688;23.366;2023-02-12T00:18:51;4.83;;;4.03;;
6529;SDS011;3298;42.688;23.366;2023-02-12T00:21:19;8.40;;;6.70;;
6529;SDS011;3298;42.688;23.366;2023-02-12T00:23:46;10.23;;;5.73;;
6529;SDS011;3298;42.688;23.366;2023-02-12T00:26:14;7.73;;;6.83;;
6529;SDS011;3298;42.688;23.366;2023-02-12T00:28:44;8.30;;;6.97;;
6529;SDS011;3298;42.688;23.366;2023-02-12T00:31:12;9.93;;;6.87;;
6529;SDS011;3298;42.688;23.366;2023-02-12T00:33:40;11.00;;;7.03;;
6529;SDS011;3298;42.688;23.366;2023-02-12T00:36:07;9.00;;;7.27;;
6529;SDS011;3298;42.688;23.366;2023-02-12T00:38:35;10.47;;;7.27;;
6529;SDS011;3298;42.688;23.366;2023-02-12T00:41:02;9.17;;;6.70;;
6529;SDS011;3298;42.688;23.366;2023-02-12T00:43:29;10.30;;;7.63;;
6529;SDS011;3298;42.688;23.366;2023-02-12T00:45:57;9.27;;;7.07;;
6529;SDS011;3298;42.688;23.366;2023-02-12T00:48:23;8.10;;;7.30;;
6529;SDS011;3298;42.688;23.366;2023-02-12T00:50:50;8.03;;;6.20;;
6529;SDS011;3298;42.688;23.366;2023-02-12T00:53:17;8.57;;;6.70;;
6529;SDS011;3298;42.688;23.366;2023-02-12T00:55:45;10.17;;;6.30;;
6529;SDS011;3298;42.688;23.366;2023-02-12T00:58:12;10.03;;;7.03;;
6529;SDS011;3298;42.688;23.366;2023-02-12T01:00:41;8.63;;;6.93;;
6529;SDS011;3298;42.688;23.366;2023-02-12T01:03:09;9.70;;;7.03;;
6529;SDS011;3298;42.688;23.366;2023-02-12T01:05:36;7.33;;;6.63;;
6529;SDS011;3298;42.688;23.366;2023-02-12T01:08:03;11.07;;;6.63;;
6529;SDS011;3298;42.688;23.366;2023-02-12T01:10:30;12.90;;;8.57;;
6529;SDS011;3298;42.688;23.366;2023-02-12T01:12:59;13.07;;;7.67;;
6529;SDS011;3298;42.688;23.366;2023-02-12T01:15:25;10.13;;;8.23;;
6529;SDS011;3298;42.688;23.366;2023-02-12T01:17:52;8.00;;;7.10;;
6529;SDS011;3298;42.688;23.366;2023-02-12T01:20:21;11.03;;;8.00;;
6529;SDS011;3298;42.688;23.366;2023-02-12T01:22:49;9.30;;;7.50;;
6529;SDS011;3298;42.688;23.366;2023-02-12T01:25:16;12.63;;;8.00;;
6529;SDS011;3298;42.688;23.366;2023-02-12T01:27:44;10.57;;;8.00;;
6529;SDS011;3298;42.688;23.366;2023-02-12T01:30:11;10.17;;;7.53;;
6529;SDS011;3298;42.688;23.366;2023-02-12T01:32:40;11.53;;;7.77;;
6529;SDS011;3298;42.688;23.366;2023-02-12T01:35:07;9.47;;;6.93;;
6529;SDS011;3298;42.688;23.366;2023-02-12T01:37:36;10.50;;;7.63;;
6529;SDS011;3298;42.688;23.366;2023-02-12T01:40:04;8.13;;;7.33;;
6529;SDS011;3298;42.688;23.366;2023-02-12T01:42:31;10.17;;;8.20;;
6529;SDS011;3298;42.688;23.366;2023-02-12T01:48:05;11.07;;;8.40;;
6529;SDS011;3298;42.688;23.366;2023-02-12T01:50:32;11.47;;;7.37;;
6529;SDS011;3298;42.688;23.366;2023-02-12T01:53:01;11.80;;;7.17;;
6529;SDS011;3298;42.688;23.366;2023-02-12T01:55:28;10.33;;;6.90;;
6529;SDS011;3298;42.688;23.366;2023-02-12T01:57:55;10.40;;;7.47;;
6529;SDS011;3298;42.688;23.366;2023-02-12T02:00:22;8.03;;;7.23;;
6529;SDS011;3298;42.688;23.366;2023-02-12T02:02:57;10.47;;;7.43;;
6529;SDS011;3298;42.688;23.366;2023-02-12T02:05:32;8.30;;;7.23;;
6529;SDS011;3298;42.688;23.366;2023-02-12T02:08:07;13.67;;;7.90;;
6529;SDS011;3298;42.688;23.366;2023-02-12T02:10:34;11.93;;;8.60;;
6529;SDS011;3298;42.688;23.366;2023-02-12T02:13:01;10.17;;;8.93;;
6529;SDS011;3298;42.688;23.366;2023-02-12T02:15:43;12.50;;;9.13;;
6529;SDS011;3298;42.688;23.366;2023-02-12T02:18:15;13.10;;;9.00;;
6529;SDS011;3298;42.688;23.366;2023-02-12T02:20:55;10.97;;;8.23;;
6529;SDS011;3298;42.688;23.366;2023-02-12T02:23:55;13.60;;;8.80;;
6529;SDS011;3298;42.688;23.366;2023-02-12T02:32:30;15.77;;;10.43;;
6529;SDS011;3298;42.688;23.366;2023-02-12T02:35:04;15.93;;;10.67;;
6529;SDS011;3298;42.688;23.366;2023-02-12T02:37:38;16.30;;;10.37;;
6529;SDS011;3298;42.688;23.366;2023-02-12T02:40:13;14.20;;;10.73;;
6529;SDS011;3298;42.688;23.366;2023-02-12T02:42:45;13.67;;;10.83;;
6529;SDS011;3298;42.688;23.366;2023-02-12T02:45:19;15.10;;;10.97;;
6529;SDS011;3298;42.688;23.366;2023-02-12T02:47:55;14.47;;;10.20;;
6529;SDS011;3298;42.688;23.366;2023-02-12T02:50:26;16.67;;;10.60;;
6529;SDS011;3298;42.688;23.366;2023-02-12T02:52:55;17.30;;;10.80;;
6529;SDS011;3298;42.688;23.366;2023-02-12T02:55:29;12.50;;;9.63;;
6529;SDS011;3298;42.688;23.366;2023-02-12T02:58:02;13.73;;;9.90;;
6529;SDS011;3298;42.688;23.366;2023-02-12T03:00:34;16.17;;;10.17;;
6529;SDS011;3298;42.688;23.366;2023-02-12T03:03:08;23.87;;;14.87;;
6529;SDS011;3298;42.688;23.366;2023-02-12T03:05:39;51.13;;;19.17;;
6529;SDS011;3298;42.688;23.366;2023-02-12T03:08:09;26.90;;;15.03;;
6529;SDS011;3298;42.688;23.366;2023-02-12T03:10:41;13.40;;;9.70;;
6529;SDS011;3298;42.688;23.366;2023-02-12T03:13:11;16.00;;;10.03;;
6529;SDS011;3298;42.688;23.366;2023-02-12T03:15:44;15.57;;;9.30;;
6529;SDS011;3298;42.688;23.366;2023-02-12T03:18:17;19.30;;;11.33;;
6529;SDS011;3298;42.688;23.366;2023-02-12T03:20:47;16.43;;;11.30;;
6529;SDS011;3298;42.688;23.366;2023-02-12T03:23:18;15.27;;;10.90;;
6529;SDS011;3298;42.688;23.366;2023-02-12T03:25:52;15.60;;;10.00;;
6529;SDS011;3298;42.688;23.366;2023-02-12T03:28:24;14.10;;;9.77;;
6529;SDS011;3298;42.688;23.366;2023-02-12T03:30:56;15.70;;;9.80;;
6529;SDS011;3298;42.688;23.366;2023-02-12T03:33:31;14.43;;;8.83;;
6529;SDS011;3298;42.688;23.366;2023-02-12T03:36:08;15.47;;;9.77;;
6529;SDS011;3298;42.688;23.366;2023-02-12T03:38:40;8.90;;;8.00;;
6529;SDS011;3298;42.688;23.366;2023-02-12T03:41:11;14.43;;;9.60;;
6529;SDS011;3298;42.688;23.366;2023-02-12T03:43:46;12.90;;;9.70;;
6529;SDS011;3298;42.688;23.366;2023-02-12T03:46:18;14.53;;;10.53;;
6529;SDS011;3298;42.688;23.366;2023-02-12T03:48:51;14.20;;;9.20;;
6529;SDS011;3298;42.688;23.366;2023-02-12T03:51:25;11.87;;;9.53;;
6529;SDS011;3298;42.688;23.366;2023-02-12T03:53:57;15.00;;;10.87;;
6529;SDS011;3298;42.688;23.366;2023-02-12T03:56:25;11.07;;;8.23;;
6529;SDS011;3298;42.688;23.366;2023-02-12T03:58:57;13.33;;;10.37;;
6529;SDS011;3298;42.688;23.366;2023-02-12T04:01:24;12.63;;;10.27;;
6529;SDS011;3298;42.688;23.366;2023-02-12T04:03:53;15.60;;;10.53;;
6529;SDS011;3298;42.688;23.366;2023-02-12T04:06:21;13.50;;;9.70;;
6529;SDS011;3298;42.688;23.366;2023-02-12T04:08:49;16.67;;;10.23;;
6529;SDS011;3298;42.688;23.366;2023-02-12T04:11:20;14.10;;;9.90;;
6529;SDS011;3298;42.688;23.366;2023-02-12T04:13:58;13.73;;;10.63;;
6529;SDS011;3298;42.688;23.366;2023-02-12T04:16:36;14.23;;;9.67;;
6529;SDS011;3298;42.688;23.366;2023-02-12T04:19:11;13.17;;;8.80;;
6529;SDS011;3298;42.688;23.366;2023-02-12T04:21:43;14.50;;;10.07;;
6529;SDS011;3298;42.688;23.366;2023-02-12T04:24:24;14.93;;;9.73;;
6529;SDS011;3298;42.688;23.366;2023-02-12T04:26:59;11.77;;;9.47;;
6529;SDS011;3298;42.688;23.366;2023-02-12T04:29:34;13.70;;;9.27;;
6529;SDS011;3298;42.688;23.366;2023-02-12T04:32:10;12.97;;;9.93;;
6529;SDS011;3298;42.688;23.366;2023-02-12T04:34:43;15.53;;;9.90;;
6529;SDS011;3298;42.688;23.366;2023-02-12T04:37:17;16.70;;;10.27;;
6529;SDS011;3298;42.688;23.366;2023-02-12T04:39:46;14.20;;;9.90;;
6529;SDS011;3298;42.688;23.366;2023-02-12T04:42:14;17.23;;;10.80;;
6529;SDS011;3298;42.688;23.366;2023-02-12T04:44:42;13.73;;;10.30;;
6529;SDS011;3298;42.688;23.366;2023-02-12T04:47:09;14.60;;;10.27;;
6529;SDS011;3298;42.688;23.366;2023-02-12T04:49:37;17.67;;;10.33;;
6529;SDS011;3298;42.688;23.366;2023-02-12T04:52:05;17.40;;;11.47;;
6529;SDS011;3298;42.688;23.366;2023-02-12T04:54:33;12.87;;;9.70;;
6529;SDS011;3298;42.688;23.366;2023-02-12T04:57:00;14.80;;;10.60;;
6529;SDS011;3298;42.688;23.366;2023-02-12T04:59:27;17.70;;;11.97;;
6529;SDS011;3298;42.688;23.366;2023-02-12T05:01:54;15.63;;;11.00;;
6529;SDS011;3298;42.688;23.366;2023-02-12T05:04:20;16.40;;;11.03;;
6529;SDS011;3298;42.688;23.366;2023-02-12T05:06:47;14.87;;;10.50;;
6529;SDS011;3298;42.688;23.366;2023-02-12T05:09:16;17.00;;;10.27;;
6529;SDS011;3298;42.688;23.366;2023-02-12T05:11:44;14.40;;;10.07;;
6529;SDS011;3298;42.688;23.366;2023-02-12T05:14:11;15.40;;;10.83;;
6529;SDS011;3298;42.688;23.366;2023-02-12T05:16:38;20.07;;;11.30;;
6529;SDS011;3298;42.688;23.366;2023-02-12T05:19:05;13.57;;;10.83;;
6529;SDS011;3298;42.688;23.366;2023-02-12T05:21:33;8.87;;;7.17;;
6529;SDS011;3298;42.688;23.366;2023-02-12T05:24:00;16.63;;;8.83;;
6529;SDS011;3298;42.688;23.366;2023-02-12T05:26:28;12.77;;;8.37;;
6529;SDS011;3298;42.688;23.366;2023-02-12T05:28:55;14.43;;;9.13;;
6529;SDS011;3298;42.688;23.366;2023-02-12T05:31:22;16.83;;;12.57;;
6529;SDS011;3298;42.688;23.366;2023-02-12T05:33:49;11.90;;;8.50;;
6529;SDS011;3298;42.688;23.366;2023-02-12T05:36:16;22.53;;;11.70;;
6529;SDS011;3298;42.688;23.366;2023-02-12T05:38:44;7.67;;;5.33;;
6529;SDS011;3298;42.688;23.366;2023-02-12T05:41:12;13.17;;;9.10;;
6529;SDS011;3298;42.688;23.366;2023-02-12T05:43:42;14.30;;;8.63;;
6529;SDS011;3298;42.688;23.366;2023-02-12T05:46:09;16.73;;;8.63;;
6529;SDS011;3298;42.688;23.366;2023-02-12T05:48:38;13.73;;;9.07;;
6529;SDS011;3298;42.688;23.366;2023-02-12T05:51:05;27.83;;;13.00;;
6529;SDS011;3298;42.688;23.366;2023-02-12T05:53:34;15.63;;;9.47;;
6529;SDS011;3298;42.688;23.366;2023-02-12T05:56:08;11.27;;;8.97;;
6529;SDS011;3298;42.688;23.366;2023-02-12T05:58:36;15.57;;;8.77;;
6529;SDS011;3298;42.688;23.366;2023-02-12T06:01:07;11.67;;;8.57;;
6529;SDS011;3298;42.688;23.366;2023-02-12T06:03:35;14.07;;;9.63;;
6529;SDS011;3298;42.688;23.366;2023-02-12T06:06:02;14.07;;;9.87;;
6529;SDS011;3298;42.688;23.366;2023-02-12T06:08:29;16.23;;;9.73;;
6529;SDS011;3298;42.688;23.366;2023-02-12T06:10:58;15.50;;;10.13;;
6529;SDS011;3298;42.688;23.366;2023-02-12T06:13:26;15.73;;;9.37;;
6529;SDS011;3298;42.688;23.366;2023-02-12T06:15:53;15.37;;;9.73;;
6529;SDS011;3298;42.688;23.366;2023-02-12T06:18:21;13.83;;;8.77;;
6529;SDS011;3298;42.688;23.366;2023-02-12T06:20:48;13.83;;;10.50;;
6529;SDS011;3298;42.688;23.366;2023-02-12T06:23:15;14.60;;;10.13;;
6529;SDS011;3298;42.688;23.366;2023-02-12T06:25:42;18.57;;;10.67;;
6529;SDS011;3298;42.688;23.366;2023-02-12T06:28:09;13.93;;;10.13;;
6529;SDS011;3298;42.688;23.366;2023-02-12T06:30:35;13.77;;;8.93;;
6529;SDS011;3298;42.688;23.366;2023-02-12T06:33:02;10.93;;;8.67;;
6529;SDS011;3298;42.688;23.366;2023-02-12T06:35:30;8.80;;;7.90;;
6529;SDS011;3298;42.688;23.366;2023-02-12T06:38:00;10.00;;;8.37;;
6529;SDS011;3298;42.688;23.366;2023-02-12T06:40:26;12.50;;;8.67;;
6529;SDS011;3298;42.688;23.366;2023-02-12T06:42:53;11.57;;;9.20;;
6529;SDS011;3298;42.688;23.366;2023-02-12T06:45:20;13.47;;;9.43;;
6529;SDS011;3298;42.688;23.366;2023-02-12T06:47:47;13.53;;;8.00;;
6529;SDS011;3298;42.688;23.366;2023-02-12T06:50:14;13.57;;;9.70;;
6529;SDS011;3298;42.688;23.366;2023-02-12T06:52:43;11.77;;;9.80;;
6529;SDS011;3298;42.688;23.366;2023-02-12T06:55:10;13.00;;;9.03;;
6529;SDS011;3298;42.688;23.366;2023-02-12T06:57:36;16.20;;;11.77;;
6529;SDS011;3298;42.688;23.366;2023-02-12T07:00:04;13.83;;;9.57;;
6529;SDS011;3298;42.688;23.366;2023-02-12T07:02:31;10.40;;;8.70;;
6529;SDS011;3298;42.688;23.366;2023-02-12T07:04:58;10.00;;;8.43;;
6529;SDS011;3298;42.688;23.366;2023-02-12T07:07:25;10.90;;;8.83;;
6529;SDS011;3298;42.688;23.366;2023-02-12T07:09:53;9.63;;;8.37;;
6529;SDS011;3298;42.688;23.366;2023-02-12T07:12:20;11.43;;;8.43;;
6529;SDS011;3298;42.688;23.366;2023-02-12T07:14:46;8.53;;;7.47;;
6529;SDS011;3298;42.688;23.366;2023-02-12T07:17:13;11.33;;;9.57;;
6529;SDS011;3298;42.688;23.366;2023-02-12T07:19:40;12.00;;;8.40;;
6529;SDS011;3298;42.688;23.366;2023-02-12T07:22:07;14.93;;;10.00;;
6529;SDS011;3298;42.688;23.366;2023-02-12T07:24:33;11.90;;;8.27;;
6529;SDS011;3298;42.688;23.366;2023-02-12T07:27:02;11.23;;;8.23;;
6529;SDS011;3298;42.688;23.366;2023-02-12T07:29:28;8.33;;;7.50;;
6529;SDS011;3298;42.688;23.366;2023-02-12T07:31:55;11.37;;;8.30;;
6529;SDS011;3298;42.688;23.366;2023-02-12T07:34:22;11.27;;;8.10;;
6529;SDS011;3298;42.688;23.366;2023-02-12T07:36:49;11.50;;;8.57;;
6529;SDS011;3298;42.688;23.366;2023-02-12T07:39:15;15.53;;;9.87;;
6529;SDS011;3298;42.688;23.366;2023-02-12T07:41:42;12.07;;;8.63;;
6529;SDS011;3298;42.688;23.366;2023-02-12T07:44:11;16.73;;;10.10;;
6529;SDS011;3298;42.688;23.366;2023-02-12T07:46:38;16.40;;;9.23;;
6529;SDS011;3298;42.688;23.366;2023-02-12T07:49:07;11.93;;;8.70;;
6529;SDS011;3298;42.688;23.366;2023-02-12T07:51:39;11.83;;;9.23;;
6529;SDS011;3298;42.688;23.366;2023-02-12T07:54:06;11.33;;;9.80;;
6529;SDS011;3298;42.688;23.366;2023-02-12T07:56:34;13.13;;;10.90;;
6529;SDS011;3298;42.688;23.366;2023-02-12T07:59:03;11.67;;;9.13;;
6529;SDS011;3298;42.688;23.366;2023-02-12T08:01:34;10.33;;;7.80;;
6529;SDS011;3298;42.688;23.366;2023-02-12T08:04:03;15.50;;;10.53;;
6529;SDS011;3298;42.688;23.366;2023-02-12T08:06:32;15.53;;;10.37;;
6529;SDS011;3298;42.688;23.366;2023-02-12T08:09:01;12.90;;;8.93;;
6529;SDS011;3298;42.688;23.366;2023-02-12T08:11:29;13.60;;;9.63;;
6529;SDS011;3298;42.688;23.366;2023-02-12T08:13:57;17.43;;;11.03;;
6529;SDS011;3298;42.688;23.366;2023-02-12T08:16:25;17.27;;;11.70;;
6529;SDS011;3298;42.688;23.366;2023-02-12T08:18:54;12.60;;;10.57;;
6529;SDS011;3298;42.688;23.366;2023-02-12T08:21:22;14.10;;;10.77;;
6529;SDS011;3298;42.688;23.366;2023-02-12T08:23:50;13.03;;;10.20;;
6529;SDS011;3298;42.688;23.366;2023-02-12T08:26:19;13.80;;;10.90;;
6529;SDS011;3298;42.688;23.366;2023-02-12T08:28:48;13.33;;;10.87;;
6529;SDS011;3298;42.688;23.366;2023-02-12T08:31:19;16.97;;;11.50;;
6529;SDS011;3298;42.688;23.366;2023-02-12T08:33:47;15.60;;;11.67;;
6529;SDS011;3298;42.688;23.366;2023-02-12T08:36:17;13.63;;;11.03;;
6529;SDS011;3298;42.688;23.366;2023-02-12T08:38:45;20.93;;;13.27;;
6529;SDS011;3298;42.688;23.366;2023-02-12T08:41:14;14.90;;;11.77;;
6529;SDS011;3298;42.688;23.366;2023-02-12T08:43:41;18.23;;;11.57;;
6529;SDS011;3298;42.688;23.366;2023-02-12T08:46:09;12.30;;;11.00;;
6529;SDS011;3298;42.688;23.366;2023-02-12T08:48:37;18.60;;;10.80;;
6529;SDS011;3298;42.688;23.366;2023-02-12T08:51:05;19.43;;;12.47;;
6529;SDS011;3298;42.688;23.366;2023-02-12T08:53:35;16.07;;;13.07;;
6529;SDS011;3298;42.688;23.366;2023-02-12T08:56:03;18.13;;;12.97;;
6529;SDS011;3298;42.688;23.366;2023-02-12T08:58:30;15.67;;;12.13;;
6529;SDS011;3298;42.688;23.366;2023-02-12T09:00:57;20.20;;;12.07;;
6529;SDS011;3298;42.688;23.366;2023-02-12T09:03:24;16.43;;;12.27;;
6529;SDS011;3298;42.688;23.366;2023-02-12T09:05:51;17.40;;;11.93;;
6529;SDS011;3298;42.688;23.366;2023-02-12T09:08:18;21.07;;;12.37;;
6529;SDS011;3298;42.688;23.366;2023-02-12T09:10:46;20.13;;;12.33;;
6529;SDS011;3298;42.688;23.366;2023-02-12T09:13:13;17.80;;;12.83;;
6529;SDS011;3298;42.688;23.366;2023-02-12T09:15:41;18.83;;;12.50;;
6529;SDS011;3298;42.688;23.366;2023-02-12T09:18:09;18.57;;;12.97;;
6529;SDS011;3298;42.688;23.366;2023-02-12T09:20:36;21.63;;;12.33;;
6529;SDS011;3298;42.688;23.366;2023-02-12T09:23:05;19.40;;;12.57;;
6529;SDS011;3298;42.688;23.366;2023-02-12T09:25:32;19.83;;;13.17;;
6529;SDS011;3298;42.688;23.366;2023-02-12T09:28:01;18.13;;;12.47;;
6529;SDS011;3298;42.688;23.366;2023-02-12T09:30:28;21.13;;;14.57;;
6529;SDS011;3298;42.688;23.366;2023-02-12T09:32:55;17.40;;;13.13;;
6529;SDS011;3298;42.688;23.366;2023-02-12T09:35:23;47.90;;;16.30;;
6529;SDS011;3298;42.688;23.366;2023-02-12T09:37:51;19.60;;;14.60;;
6529;SDS011;3298;42.688;23.366;2023-02-12T09:40:19;20.47;;;13.63;;
6529;SDS011;3298;42.688;23.366;2023-02-12T09:42:57;17.90;;;13.57;;
6529;SDS011;3298;42.688;23.366;2023-02-12T09:45:32;20.73;;;14.37;;
6529;SDS011;3298;42.688;23.366;2023-02-12T09:48:06;20.37;;;13.43;;
6529;SDS011;3298;42.688;23.366;2023-02-12T09:50:42;22.53;;;13.40;;
6529;SDS011;3298;42.688;23.366;2023-02-12T09:53:14;19.33;;;13.60;;
6529;SDS011;3298;42.688;23.366;2023-02-12T09:55:43;18.67;;;12.77;;
6529;SDS011;3298;42.688;23.366;2023-02-12T09:58:13;21.63;;;13.77;;
6529;SDS011;3298;42.688;23.366;2023-02-12T10:00:43;18.30;;;14.07;;
6529;SDS011;3298;42.688;23.366;2023-02-12T10:03:11;22.87;;;15.70;;
6529;SDS011;3298;42.688;23.366;2023-02-12T10:05:41;21.30;;;15.67;;
6529;SDS011;3298;42.688;23.366;2023-02-12T10:08:19;23.33;;;15.60;;
6529;SDS011;3298;42.688;23.366;2023-02-12T10:11:11;20.67;;;14.63;;
6529;SDS011;3298;42.688;23.366;2023-02-12T10:13:49;21.17;;;15.50;;
6529;SDS011;3298;42.688;23.366;2023-02-12T10:16:22;16.73;;;12.70;;
6529;SDS011;3298;42.688;23.366;2023-02-12T10:19:10;21.40;;;13.10;;
6529;SDS011;3298;42.688;23.366;2023-02-12T10:21:50;21.50;;;15.33;;
6529;SDS011;3298;42.688;23.366;2023-02-12T10:24:48;21.73;;;15.80;;
6529;SDS011;3298;42.688;23.366;2023-02-12T10:27:26;19.93;;;13.60;;
6529;SDS011;3298;42.688;23.366;2023-02-12T10:30:04;22.17;;;14.57;;
6529;SDS011;3298;42.688;23.366;2023-02-12T10:32:42;21.50;;;13.43;;
6529;SDS011;3298;42.688;23.366;2023-02-12T10:35:12;26.10;;;13.97;;
6529;SDS011;3298;42.688;23.366;2023-02-12T10:37:41;20.33;;;13.77;;
6529;SDS011;3298;42.688;23.366;2023-02-12T10:40:16;21.17;;;14.07;;
6529;SDS011;3298;42.688;23.366;2023-02-12T10:42:46;21.53;;;14.67;;
6529;SDS011;3298;42.688;23.366;2023-02-12T10:45:17;23.33;;;15.67;;
6529;SDS011;3298;42.688;23.366;2023-02-12T10:47:46;31.60;;;15.50;;
6529;SDS011;3298;42.688;23.366;2023-02-12T10:50:19;22.10;;;15.13;;
6529;SDS011;3298;42.688;23.366;2023-02-12T10:52:52;24.93;;;15.77;;
6529;SDS011;3298;42.688;23.366;2023-02-12T10:55:25;23.77;;;15.90;;
6529;SDS011;3298;42.688;23.366;2023-02-12T10:57:54;23.83;;;15.67;;
6529;SDS011;3298;42.688;23.366;2023-02-12T11:00:29;18.57;;;13.93;;
6529;SDS011;3298;42.688;23.366;2023-02-12T11:03:05;21.60;;;16.20;;
6529;SDS011;3298;42.688;23.366;2023-02-12T11:05:45;22.23;;;14.87;;
6529;SDS011;3298;42.688;23.366;2023-02-12T11:08:25;22.27;;;15.23;;
6529;SDS011;3298;42.688;23.366;2023-02-12T11:11:01;27.33;;;16.70;;
6529;SDS011;3298;42.688;23.366;2023-02-12T11:13:31;21.60;;;15.47;;
6529;SDS011;3298;42.688;23.366;2023-02-12T11:15:59;24.37;;;16.73;;
6529;SDS011;3298;42.688;23.366;2023-02-12T11:18:28;26.17;;;15.50;;
6529;SDS011;3298;42.688;23.366;2023-02-12T11:20:57;24.60;;;17.63;;
6529;SDS011;3298;42.688;23.366;2023-02-12T11:23:27;24.17;;;16.13;;
6529;SDS011;3298;42.688;23.366;2023-02-12T11:25:57;27.87;;;15.60;;
6529;SDS011;3298;42.688;23.366;2023-02-12T11:28:25;22.17;;;16.43;;
6529;SDS011;3298;42.688;23.366;2023-02-12T11:30:54;23.90;;;16.10;;
6529;SDS011;3298;42.688;23.366;2023-02-12T11:33:29;20.90;;;14.30;;
6529;SDS011;3298;42.688;23.366;2023-02-12T11:35:58;19.60;;;14.60;;
6529;SDS011;3298;42.688;23.366;2023-02-12T11:38:28;22.80;;;15.43;;
6529;SDS011;3298;42.688;23.366;2023-02-12T11:40:59;21.43;;;14.37;;
6529;SDS011;3298;42.688;23.366;2023-02-12T11:43:29;30.63;;;16.33;;
6529;SDS011;3298;42.688;23.366;2023-02-12T11:46:01;27.57;;;16.07;;
6529;SDS011;3298;42.688;23.366;2023-02-12T11:48:30;23.70;;;14.97;;
6529;SDS011;3298;42.688;23.366;2023-02-12T11:51:02;21.27;;;15.63;;
6529;SDS011;3298;42.688;23.366;2023-02-12T11:53:33;19.53;;;14.67;;
6529;SDS011;3298;42.688;23.366;2023-02-12T11:56:03;29.87;;;17.80;;
6529;SDS011;3298;42.688;23.366;2023-02-12T11:58:33;27.80;;;14.93;;
6529;SDS011;3298;42.688;23.366;2023-02-12T12:01:02;25.87;;;17.50;;
6529;SDS011;3298;42.688;23.366;2023-02-12T12:03:34;29.57;;;18.27;;
6529;SDS011;3298;42.688;23.366;2023-02-12T12:06:20;24.17;;;16.43;;
6529;SDS011;3298;42.688;23.366;2023-02-12T12:08:52;22.37;;;14.57;;
6529;SDS011;3298;42.688;23.366;2023-02-12T12:11:25;22.80;;;15.57;;
6529;SDS011;3298;42.688;23.366;2023-02-12T12:14:01;22.90;;;14.57;;
6529;SDS011;3298;42.688;23.366;2023-02-12T12:16:33;23.77;;;15.17;;
6529;SDS011;3298;42.688;23.366;2023-02-12T12:19:24;18.93;;;13.93;;
6529;SDS011;3298;42.688;23.366;2023-02-12T12:22:15;25.67;;;15.80;;
6529;SDS011;3298;42.688;23.366;2023-02-12T12:24:52;25.07;;;17.13;;
6529;SDS011;3298;42.688;23.366;2023-02-12T12:27:23;29.13;;;17.27;;
6529;SDS011;3298;42.688;23.366;2023-02-12T12:30:16;25.13;;;17.17;;
6529;SDS011;3298;42.688;23.366;2023-02-12T12:32:47;23.40;;;16.30;;
6529;SDS011;3298;42.688;23.366;2023-02-12T12:35:20;22.03;;;16.53;;
6529;SDS011;3298;42.688;23.366;2023-02-12T12:38:03;20.57;;;14.77;;
6529;SDS011;3298;42.688;23.366;2023-02-12T12:40:41;17.10;;;15.00;;
6529;SDS011;3298;42.688;23.366;2023-02-12T12:43:23;20.53;;;14.23;;
6529;SDS011;3298;42.688;23.366;2023-02-12T12:49:06;22.57;;;15.73;;
6529;SDS011;3298;42.688;23.366;2023-02-12T12:52:06;19.70;;;14.63;;
6529;SDS011;3298;42.688;23.366;2023-02-12T12:54:54;25.00;;;15.90;;
6529;SDS011;3298;42.688;23.366;2023-02-12T12:57:38;24.93;;;16.37;;
6529;SDS011;3298;42.688;23.366;2023-02-12T13:00:21;26.00;;;17.67;;
6529;SDS011;3298;42.688;23.366;2023-02-12T13:09:14;28.07;;;16.37;;
6529;SDS011;3298;42.688;23.366;2023-02-12T13:11:54;21.37;;;16.73;;
6529;SDS011;3298;42.688;23.366;2023-02-12T13:14:36;28.13;;;17.03;;
6529;SDS011;3298;42.688;23.366;2023-02-12T13:17:10;33.17;;;20.63;;
6529;SDS011;3298;42.688;23.366;2023-02-12T13:19:47;22.73;;;16.03;;
6529;SDS011;3298;42.688;23.366;2023-02-12T13:22:26;53.57;;;28.83;;
6529;SDS011;3298;42.688;23.366;2023-02-12T13:25:04;35.87;;;20.37;;
6529;SDS011;3298;42.688;23.366;2023-02-12T13:27:42;31.73;;;18.30;;
6529;SDS011;3298;42.688;23.366;2023-02-12T13:30:16;51.77;;;31.33;;
6529;SDS011;3298;42.688;23.366;2023-02-12T13:32:46;55.27;;;30.00;;
6529;SDS011;3298;42.688;23.366;2023-02-12T13:35:21;27.97;;;18.37;;
6529;SDS011;3298;42.688;23.366;2023-02-12T13:37:51;27.57;;;17.57;;
6529;SDS011;3298;42.688;23.366;2023-02-12T13:40:21;43.00;;;24.87;;
6529;SDS011;3298;42.688;23.366;2023-02-12T13:42:50;30.50;;;18.90;;
6529;SDS011;3298;42.688;23.366;2023-02-12T13:45:26;41.20;;;23.10;;
6529;SDS011;3298;42.688;23.366;2023-02-12T13:48:18;72.60;;;36.23;;
6529;SDS011;3298;42.688;23.366;2023-02-12T13:50:55;29.67;;;19.00;;
6529;SDS011;3298;42.688;23.366;2023-02-12T13:53:30;30.00;;;18.63;;
6529;SDS011;3298;42.688;23.366;2023-02-12T13:56:10;20.77;;;15.40;;
6529;SDS011;3298;42.688;23.366;2023-02-12T13:58:53;36.60;;;22.10;;
6529;SDS011;3298;42.688;23.366;2023-02-12T14:04:14;38.30;;;22.03;;
6529;SDS011;3298;42.688;23.366;2023-02-12T14:06:57;31.17;;;19.33;;
6529;SDS011;3298;42.688;23.366;2023-02-12T14:09:28;26.53;;;16.67;;
6529;SDS011;3298;42.688;23.366;2023-02-12T14:12:02;28.63;;;17.03;;
6529;SDS011;3298;42.688;23.366;2023-02-12T14:14:31;31.07;;;19.97;;
6529;SDS011;3298;42.688;23.366;2023-02-12T14:20:05;31.57;;;19.80;;
6529;SDS011;3298;42.688;23.366;2023-02-12T14:25:37;36.10;;;22.57;;
6529;SDS011;3298;42.688;23.366;2023-02-12T14:28:13;35.33;;;19.97;;
6529;SDS011;3298;42.688;23.366;2023-02-12T14:33:47;27.73;;;20.27;;
6529;SDS011;3298;42.688;23.366;2023-02-12T14:36:16;23.97;;;17.57;;
6529;SDS011;3298;42.688;23.366;2023-02-12T14:39:07;29.80;;;20.07;;
6529;SDS011;3298;42.688;23.366;2023-02-12T14:41:55;35.80;;;22.63;;
6529;SDS011;3298;42.688;23.366;2023-02-12T14:45:02;24.83;;;19.00;;
6529;SDS011;3298;42.688;23.366;2023-02-12T14:50:19;27.23;;;18.93;;
6529;SDS011;3298;42.688;23.366;2023-02-12T14:52:51;26.70;;;18.50;;
6529;SDS011;3298;42.688;23.366;2023-02-12T14:55:25;30.57;;;19.70;;
6529;SDS011;3298;42.688;23.366;2023-02-12T14:57:58;32.83;;;21.77;;
6529;SDS011;3298;42.688;23.366;2023-02-12T15:00:30;36.07;;;22.63;;
6529;SDS011;3298;42.688;23.366;2023-02-12T15:03:06;29.90;;;20.10;;
6529;SDS011;3298;42.688;23.366;2023-02-12T15:05:44;28.23;;;17.67;;
6529;SDS011;3298;42.688;23.366;2023-02-12T15:08:17;24.60;;;17.13;;
6529;SDS011;3298;42.688;23.366;2023-02-12T15:10:51;25.20;;;16.70;;
6529;SDS011;3298;42.688;23.366;2023-02-12T15:13:23;28.03;;;17.80;;
6529;SDS011;3298;42.688;23.366;2023-02-12T15:15:56;26.33;;;17.50;;
6529;SDS011;3298;42.688;23.366;2023-02-12T15:18:41;32.37;;;18.63;;
6529;SDS011;3298;42.688;23.366;2023-02-12T15:21:15;27.53;;;18.27;;
6529;SDS011;3298;42.688;23.366;2023-02-12T15:23:46;26.50;;;17.77;;
6529;SDS011;3298;42.688;23.366;2023-02-12T15:26:22;31.20;;;20.17;;
6529;SDS011;3298;42.688;23.366;2023-02-12T15:28:52;29.00;;;19.83;;
6529;SDS011;3298;42.688;23.366;2023-02-12T15:31:21;26.90;;;18.27;;
6529;SDS011;3298;42.688;23.366;2023-02-12T15:33:53;35.17;;;20.47;;
6529;SDS011;3298;42.688;23.366;2023-02-12T15:36:22;45.20;;;27.27;;
6529;SDS011;3298;42.688;23.366;2023-02-12T15:38:51;32.87;;;21.00;;